Time;durP1;ratioP1;P1;durP2;ratioP2;P2;SDS_P1;SDS_P2;PMS_P1;PMS_P2;Temp;Humidity;BMP_temperature;BMP_pressure;BME280_temperature;BME280_humidity;BME280_pressure;Samples;Min_cycle;Max_cycle;Signal;HPM_P1;HPM_P2
2022/11/19 00:01:26;;;;;;;31.75;26.45;;;;;;;7.74;100.00;100729.63;5225738;28;20401;-67
2022/11/19 00:03:56;;;;;;;32.30;29.23;;;;;;;7.75;100.00;100742.00;5224664;28;20409;-67
2022/11/19 00:06:27;;;;;;;34.05;31.08;;;;;;;7.74;100.00;100729.63;5226817;28;20029;-67
2022/11/19 00:08:57;;;;;;;30.88;27.95;;;;;;;7.82;100.00;100737.28;5225975;28;20028;-71
2022/11/19 00:14:17;;;;;;;32.42;28.45;;;;;;;7.88;100.00;100733.63;5227263;28;20076;-67
2022/11/19 00:16:47;;;;;;;30.02;27.33;;;;;;;7.90;100.00;100728.03;5226644;28;20426;-67
2022/11/19 00:19:17;;;;;;;33.00;29.67;;;;;;;7.88;100.00;100730.13;5225546;28;20024;-68
2022/11/19 00:21:49;;;;;;;32.63;29.52;;;;;;;7.88;100.00;100735.50;5225141;28;20028;-71
2022/11/19 00:24:21;;;;;;;32.38;29.38;;;;;;;7.78;100.00;100723.53;5225084;28;20063;-70
2022/11/19 00:26:51;;;;;;;31.80;28.55;;;;;;;7.91;100.00;100735.03;5224455;28;20029;-72
2022/11/19 00:29:22;;;;;;;29.83;27.67;;;;;;;7.90;100.00;100736.09;5224827;28;20031;-69
2022/11/19 00:31:52;;;;;;;30.55;27.88;;;;;;;7.91;100.00;100740.41;5225365;28;20109;-70
2022/11/19 00:34:23;;;;;;;27.83;25.80;;;;;;;7.87;100.00;100737.38;5225377;28;20021;-69
2022/11/19 00:36:53;;;;;;;31.88;28.80;;;;;;;7.90;100.00;100736.09;5224931;28;20481;-69
2022/11/19 00:39:24;;;;;;;33.92;31.08;;;;;;;7.90;100.00;100742.28;5224748;28;20496;-69
2022/11/19 00:41:54;;;;;;;35.90;29.60;;;;;;;7.89;100.00;100742.50;5224722;28;20064;-69
2022/11/19 00:44:25;;;;;;;29.95;27.38;;;;;;;7.87;100.00;100739.25;5224741;28;20075;-70
2022/11/19 00:46:55;;;;;;;29.67;27.13;;;;;;;7.75;100.00;100724.00;5224741;28;20056;-70
2022/11/19 00:49:26;;;;;;;32.55;29.77;;;;;;;7.70;100.00;100717.72;5224116;28;20029;-70
2022/11/19 00:51:56;;;;;;;30.63;28.13;;;;;;;7.64;100.00;100714.13;5224834;28;20036;-70
2022/11/19 00:54:26;;;;;;;30.60;27.83;;;;;;;7.77;100.00;100739.91;5224307;28;20036;-69
2022/11/19 00:56:57;;;;;;;30.73;28.13;;;;;;;7.75;100.00;100742.00;5225934;28;20067;-69
2022/11/19 00:59:28;;;;;;;32.65;29.95;;;;;;;7.75;100.00;100747.38;5224629;28;20021;-68
2022/11/19 01:01:58;;;;;;;30.85;27.98;;;;;;;7.55;100.00;100714.72;5224137;28;20481;-70
2022/11/19 01:04:28;;;;;;;32.97;29.42;;;;;;;7.58;100.00;100727.69;5224306;28;20507;-69
2022/11/19 01:06:59;;;;;;;34.33;31.02;;;;;;;7.72;100.00;100747.88;5224398;28;20020;-67
2022/11/19 01:09:29;;;;;;;30.38;27.98;;;;;;;7.70;100.00;100745.41;5224587;28;20024;-68
2022/11/19 01:12:00;;;;;;;31.83;28.98;;;;;;;7.71;100.00;100754.28;5224584;28;20281;-68
2022/11/19 01:14:30;;;;;;;34.20;31.33;;;;;;;7.72;100.00;100753.25;5224350;28;20064;-68
2022/11/19 01:17:01;;;;;;;29.63;26.75;;;;;;;7.72;100.00;100758.63;5224604;28;20063;-68
2022/11/19 01:19:31;;;;;;;33.08;30.27;;;;;;;7.57;100.00;100745.69;5224499;28;20025;-69
2022/11/19 01:22:02;;;;;;;32.30;29.52;;;;;;;7.69;100.00;100765.28;5225586;28;20154;-68
2022/11/19 01:24:32;;;;;;;32.60;29.60;;;;;;;7.70;100.00;100760.72;5224350;28;20108;-69
2022/11/19 01:27:03;;;;;;;36.92;33.65;;;;;;;7.67;100.00;100758.50;5225020;28;20301;-69
2022/11/19 01:29:33;;;;;;;29.77;27.45;;;;;;;7.70;100.00;100771.47;5224392;28;20025;-68
2022/11/19 01:32:04;;;;;;;31.45;28.98;;;;;;;7.72;100.00;100770.19;5225468;28;20170;-68
2022/11/19 01:34:34;;;;;;;36.45;33.35;;;;;;;7.61;100.00;100749.53;5224546;28;20401;-70
2022/11/19 01:37:05;;;;;;;37.50;34.03;;;;;;;7.76;100.00;100773.22;5224954;28;20025;-68
2022/11/19 01:39:35;;;;;;;34.95;31.95;;;;;;;7.78;100.00;100779.16;5229411;28;20036;-68
2022/11/19 01:42:48;;;;;;;39.60;35.90;;;;;;;7.78;100.00;100779.16;5229456;28;20114;-67
2022/11/19 01:45:36;;;;;;;33.85;30.77;;;;;;;7.77;100.00;100780.22;5230120;28;20029;-67
2022/11/19 01:48:19;;;;;;;38.70;35.47;;;;;;;7.75;100.00;100780.47;5230440;28;20049;-69
2022/11/19 01:51:01;;;;;;;35.80;33.03;;;;;;;7.75;100.00;100780.47;5228490;28;20086;-68
2022/11/19 01:53:34;;;;;;;32.78;29.98;;;;;;;7.66;100.00;100765.75;5227776;28;20021;-68
2022/11/19 01:56:07;;;;;;;37.55;33.58;;;;;;;7.60;100.00;100752.44;5228255;28;20028;-68
2022/11/19 01:58:41;;;;;;;36.50;32.95;;;;;;;7.80;100.00;100785.09;5228027;28;20076;-70
2022/11/19 02:01:13;;;;;;;38.60;35.25;;;;;;;7.62;100.00;100769.97;5227252;28;20024;-70
2022/11/19 02:03:44;;;;;;;42.28;38.45;;;;;;;7.82;100.00;100780.28;5227871;28;20493;-68
2022/11/19 02:06:14;;;;;;;37.03;33.13;;;;;;;7.77;100.00;100774.84;5228090;28;20036;-68
2022/11/19 02:08:51;;;;;;;36.58;33.28;;;;;;;7.85;100.00;100781.69;5228009;28;20135;-68
2022/11/19 02:11:29;;;;;;;37.78;34.28;;;;;;;7.85;100.00;100789.75;5227671;28;20028;-72
2022/11/19 02:13:59;;;;;;;40.38;36.55;;;;;;;7.85;100.00;100787.06;5226331;28;20104;-68
2022/11/19 02:16:45;;;;;;;37.22;33.72;;;;;;;7.85;100.00;100787.88;5227787;28;20167;-67
2022/11/19 02:19:16;;;;;;;36.15;33.03;;;;;;;7.86;100.00;100786.00;5228945;28;20090;-70
2022/11/19 02:21:58;;;;;;;39.97;35.88;;;;;;;7.83;100.00;100787.31;5227514;28;20020;-67
2022/11/19 02:24:41;;;;;;;32.97;29.83;;;;;;;7.82;100.00;100784.84;5227344;28;20110;-71
2022/11/19 02:27:52;;;;;;;36.55;33.30;;;;;;;7.74;100.00;100772.63;5227625;28;20116;-68
2022/11/19 02:30:23;;;;;;;34.20;31.25;;;;;;;7.80;100.00;100787.78;5227701;28;20481;-68
2022/11/19 02:33:21;;;;;;;33.60;30.42;;;;;;;7.82;100.00;100791.03;5227340;28;20116;-70
2022/11/19 02:36:01;;;;;;;32.92;30.13;;;;;;;7.83;100.00;100798.06;5227175;28;20374;-69
2022/11/19 02:38:57;;;;;;;25.15;22.90;;;;;;;7.84;100.00;100799.69;5227487;28;20043;-68
2022/11/19 02:42:08;;;;;;;31.92;28.70;;;;;;;7.85;100.00;100790.56;5213793;28;20028;-70
2022/11/19 02:44:58;;;;;;;30.70;28.05;;;;;;;7.86;100.00;100792.22;5212552;28;20052;-69
2022/11/19 02:47:38;;;;;;;29.73;27.30;;;;;;;7.87;100.00;100791.16;5226998;28;20059;-68
2022/11/19 02:50:26;;;;;;;30.23;27.33;;;;;;;7.82;100.00;100792.91;5226114;28;20035;-69
2022/11/19 02:52:57;;;;;;;30.60;27.80;;;;;;;7.88;100.00;100798.16;5227144;28;20556;-68
2022/11/19 02:55:28;;;;;;;30.77;27.88;;;;;;;7.82;100.00;100790.22;5226582;28;20112;-68
2022/11/19 02:58:01;;;;;;;29.73;26.95;;;;;;;7.86;100.00;100811.03;5226921;28;20017;-68
2022/11/19 03:06:25;;;;;;;26.65;24.08;;;;;;;7.03;100.00;100812.22;5228337;28;20087;-69
2022/11/19 03:08:56;;;;;;;30.13;26.98;;;;;;;6.83;100.00;100809.09;5226950;28;20040;-68
2022/11/19 03:11:29;;;;;;;24.13;21.92;;;;;;;6.66;100.00;100797.38;5227947;28;20028;-69
2022/11/19 03:17:45;;;;;;;29.88;27.30;;;;;;;6.59;100.00;100818.97;5228286;28;20036;-69
2022/11/19 03:20:28;;;;;;;29.55;26.70;;;;;;;6.56;100.00;100829.34;5226703;28;20021;-70
2022/11/19 03:23:07;;;;;;;29.33;26.70;;;;;;;6.52;100.00;100817.44;5227642;28;20033;-69
2022/11/19 03:25:43;;;;;;;30.33;27.65;;;;;;;6.43;100.00;100825.81;5226003;28;20093;-71
2022/11/19 03:28:20;;;;;;;35.22;31.83;;;;;;;6.28;100.00;100812.00;5226617;28;20067;-71
2022/11/19 03:30:52;;;;;;;34.40;30.67;;;;;;;6.32;100.00;100836.50;5226105;28;20028;-73
2022/11/19 03:33:34;;;;;;;31.60;28.50;;;;;;;6.28;100.00;100836.16;5226114;28;20035;-71
2022/11/19 03:36:09;;;;;;;30.27;27.42;;;;;;;6.14;100.00;100820.47;5226118;28;20021;-72
2022/11/19 03:38:44;;;;;;;30.42;27.38;;;;;;;6.17;100.00;100842.28;5226035;28;20535;-71
2022/11/19 03:41:19;;;;;;;28.08;25.48;;;;;;;6.15;100.00;100838.19;5226129;28;20032;-70
2022/11/19 03:43:55;;;;;;;26.55;23.92;;;;;;;6.07;100.00;100834.78;5227116;28;20108;-70
2022/11/19 03:46:28;;;;;;;25.80;23.15;;;;;;;6.01;100.00;100835.69;5225771;28;20036;-70
2022/11/19 03:49:01;;;;;;;25.17;22.55;;;;;;;5.67;100.00;100806.84;5225716;28;20032;-70
2022/11/19 03:51:37;;;;;;;27.40;25.05;;;;;;;5.71;100.00;100824.91;5225659;28;20159;-69
2022/11/19 03:54:08;;;;;;;30.02;26.92;;;;;;;5.65;100.00;100838.38;5225329;28;20466;-69
2022/11/19 03:56:40;;;;;;;24.67;22.52;;;;;;;5.48;100.00;100832.81;5225653;28;20021;-74
2022/11/19 03:59:11;;;;;;;24.92;22.70;;;;;;;5.56;100.00;100861.16;5225775;28;20120;-72
2022/11/19 04:01:45;;;;;;;26.23;23.50;;;;;;;5.56;100.00;100861.16;5225645;28;20032;-73
2022/11/19 04:07:18;;;;;;;25.45;23.25;;;;;;;5.50;100.00;100856.66;5227336;28;20067;-73
2022/11/19 04:09:48;;;;;;;20.35;18.52;;;;;;;5.25;100.00;100838.00;5225582;28;20028;-72
2022/11/19 04:12:21;;;;;;;21.42;19.35;;;;;;;5.28;100.00;100859.78;5225372;28;20013;-72
2022/11/19 04:14:52;;;;;;;18.83;17.40;;;;;;;5.30;100.00;100878.31;5226589;28;20029;-71
2022/11/19 04:17:22;;;;;;;20.38;18.63;;;;;;;5.15;100.00;100870.63;5225212;28;20027;-72
2022/11/19 04:19:52;;;;;;;20.58;18.88;;;;;;;5.09;100.00;100869.66;5226213;28;20497;-72
2022/11/19 04:22:23;;;;;;;18.45;16.33;;;;;;;5.14;100.00;100879.72;5225226;28;20021;-72
2022/11/19 04:24:53;;;;;;;18.73;17.05;;;;;;;4.97;100.00;100857.19;5223728;28;20017;-72
2022/11/19 04:27:24;;;;;;;18.85;16.98;;;;;;;5.07;100.00;100881.63;5224870;28;20028;-72
2022/11/19 04:29:54;;;;;;;17.13;15.63;;;;;;;4.99;100.00;100882.69;5223169;28;20036;-71
2022/11/19 04:32:25;;;;;;;19.05;17.23;;;;;;;4.85;100.00;100873.16;5225182;28;20017;-71
2022/11/19 04:34:55;;;;;;;18.02;16.33;;;;;;;4.64;100.00;100863.63;5224841;28;20032;-70
2022/11/19 04:37:26;;;;;;;17.63;15.90;;;;;;;4.89;100.00;100911.00;5225083;28;20043;-71
2022/11/19 04:39:56;;;;;;;17.15;15.70;;;;;;;4.82;100.00;100905.69;5224845;28;20470;-71
2022/11/19 04:42:27;;;;;;;16.15;14.65;;;;;;;4.79;100.00;100898.09;5224738;28;20032;-70
2022/11/19 04:44:57;;;;;;;18.05;16.50;;;;;;;4.79;100.00;100899.94;5224568;28;20044;-73
2022/11/19 04:47:28;;;;;;;18.88;17.10;;;;;;;4.77;100.00;100904.69;5224703;28;20485;-71
2022/11/19 04:49:58;;;;;;;15.73;14.63;;;;;;;4.74;100.00;100906.78;5224707;28;20025;-71
2022/11/19 04:52:30;;;;;;;17.13;15.52;;;;;;;4.68;100.00;100912.97;5224754;28;20021;-69
2022/11/19 04:55:01;;;;;;;17.73;16.20;;;;;;;4.60;100.00;100907.91;5224191;28;20039;-70
2022/11/19 04:57:31;;;;;;;16.83;15.50;;;;;;;4.55;100.00;100901.56;5224227;28;20477;-70
2022/11/19 05:00:03;;;;;;;18.17;16.52;;;;;;;4.59;100.00;100922.31;5224698;28;22176;-70
2022/11/19 05:02:34;;;;;;;16.30;15.05;;;;;;;4.54;100.00;100913.28;5224472;28;20071;-71
2022/11/19 05:05:04;;;;;;;16.52;15.32;;;;;;;4.44;100.00;100911.06;5224400;28;20033;-71
2022/11/19 05:07:35;;;;;;;15.32;14.05;;;;;;;4.37;100.00;100907.59;5224115;28;20061;-70
2022/11/19 05:10:06;;;;;;;13.40;12.52;;;;;;;4.41;100.00;100919.53;5224282;28;20127;-71
2022/11/19 05:12:36;;;;;;;14.63;13.57;;;;;;;4.28;100.00;100906.25;5225208;28;20021;-71
2022/11/19 05:15:09;;;;;;;13.68;12.60;;;;;;;4.31;100.00;100921.84;5228318;28;20068;-71
2022/11/19 05:17:39;;;;;;;16.30;14.85;;;;;;;4.31;100.00;100919.19;5230083;28;20481;-71
2022/11/19 05:20:10;;;;;;;14.15;12.95;;;;;;;4.13;100.00;100905.69;5228494;28;20090;-71
2022/11/19 05:22:40;;;;;;;15.75;14.38;;;;;;;4.25;100.00;100925.38;5230095;28;20033;-70
2022/11/19 05:25:11;;;;;;;15.55;14.00;;;;;;;4.25;100.00;100928.88;5228201;28;20033;-70
2022/11/19 05:27:41;;;;;;;14.18;13.13;;;;;;;4.25;100.00;100925.38;5228066;28;20362;-71
2022/11/19 05:30:12;;;;;;;14.68;13.48;;;;;;;4.20;100.00;100918.00;5229851;28;20036;-69
2022/11/19 05:32:42;;;;;;;15.68;14.50;;;;;;;4.18;100.00;100928.06;5228648;28;20025;-70
2022/11/19 05:35:13;;;;;;;16.85;15.45;;;;;;;4.15;100.00;100938.34;5227338;28;20570;-70
2022/11/19 05:37:47;;;;;;;15.02;13.95;;;;;;;4.12;100.00;100930.75;5227285;28;20106;-70
2022/11/19 05:40:17;;;;;;;14.23;13.10;;;;;;;4.08;100.00;100941.88;5228014;28;20029;-70
2022/11/19 05:42:48;;;;;;;14.32;13.20;;;;;;;4.04;100.00;100937.97;5228465;28;20523;-70
2022/11/19 05:45:19;;;;;;;13.18;12.00;;;;;;;3.95;100.00;100943.78;5227962;28;20087;-69
2022/11/19 05:47:53;;;;;;;15.70;14.50;;;;;;;3.86;100.00;100951.19;5228195;28;20025;-69
2022/11/19 05:50:24;;;;;;;13.85;12.82;;;;;;;3.62;100.00;100928.66;5228075;28;20508;-69
2022/11/19 05:52:56;;;;;;;13.15;12.13;;;;;;;3.67;100.00;100946.72;5227515;28;20017;-72
2022/11/19 05:55:26;;;;;;;14.38;13.23;;;;;;;3.69;100.00;100953.50;5227813;28;20137;-69
2022/11/19 05:57:57;;;;;;;14.63;13.45;;;;;;;3.67;100.00;100960.09;5228193;28;20039;-72
2022/11/19 06:00:27;;;;;;;13.63;12.45;;;;;;;3.56;100.00;100955.38;5228104;28;20036;-69
2022/11/19 06:02:58;;;;;;;14.73;13.48;;;;;;;3.62;100.00;100965.22;5228078;28;20405;-68
2022/11/19 06:05:28;;;;;;;13.82;12.85;;;;;;;3.56;100.00;100958.03;5227903;28;20544;-68
2022/11/19 06:07:59;;;;;;;16.95;15.52;;;;;;;3.58;100.00;100964.00;5228039;28;20032;-69
2022/11/19 06:10:29;;;;;;;14.57;13.40;;;;;;;3.52;100.00;100959.47;5227528;28;20029;-69
2022/11/19 06:13:00;;;;;;;16.60;15.40;;;;;;;3.55;100.00;100967.91;5227504;28;20016;-71
2022/11/19 06:15:31;;;;;;;18.35;16.73;;;;;;;3.54;100.00;100979.59;5225621;28;20032;-71
2022/11/19 06:18:01;;;;;;;16.40;15.05;;;;;;;3.53;100.00;100988.63;5229371;28;20024;-70
2022/11/19 06:20:31;;;;;;;14.95;13.65;;;;;;;3.51;100.00;100989.88;5227559;28;20025;-72
2022/11/19 06:23:02;;;;;;;13.65;12.57;;;;;;;3.43;100.00;100993.59;5227251;28;20032;-71
2022/11/19 06:25:33;;;;;;;15.98;14.60;;;;;;;3.39;100.00;101003.03;5226229;28;20024;-72
2022/11/19 06:28:03;;;;;;;17.58;16.05;;;;;;;3.19;100.00;100987.00;5228747;28;20375;-72
2022/11/19 06:30:34;;;;;;;19.75;17.90;;;;;;;3.23;100.00;101008.75;5227101;28;20404;-71
2022/11/19 06:33:04;;;;;;;17.05;15.48;;;;;;;3.10;100.00;101006.09;5227264;28;20025;-72
2022/11/19 06:35:35;;;;;;;18.42;17.02;;;;;;;3.02;100.00;101002.59;5227065;28;20025;-71
2022/11/19 06:38:05;;;;;;;19.80;18.10;;;;;;;2.82;100.00;100969.72;5227601;28;20036;-72
2022/11/19 06:40:36;;;;;;;17.08;15.85;;;;;;;2.85;100.00;100984.50;5226898;28;20029;-72
2022/11/19 06:43:06;;;;;;;18.08;16.15;;;;;;;3.01;100.00;101013.47;5227105;28;20033;-74
2022/11/19 06:45:37;;;;;;;17.75;16.15;;;;;;;2.93;100.00;101008.31;5227004;28;20051;-71
2022/11/19 06:48:07;;;;;;;16.73;15.40;;;;;;;2.99;100.00;101024.31;5228367;28;20053;-72
2022/11/19 06:50:38;;;;;;;17.67;16.15;;;;;;;2.87;100.00;101017.13;5226786;28;20488;-72
2022/11/19 06:53:08;;;;;;;18.58;17.17;;;;;;;2.97;100.00;101046.91;5227050;28;20017;-72
2022/11/19 06:55:39;;;;;;;19.40;17.55;;;;;;;2.92;100.00;101031.50;5225618;28;20131;-72
2022/11/19 06:58:09;;;;;;;20.13;18.17;;;;;;;2.88;100.00;101042.78;5227279;28;20494;-72
2022/11/19 07:00:39;;;;;;;21.48;19.83;;;;;;;2.83;100.00;101050.56;5225992;28;20051;-72
2022/11/19 07:03:10;;;;;;;20.50;18.70;;;;;;;2.80;100.00;101046.44;5226508;28;20504;-72
2022/11/19 07:05:41;;;;;;;21.27;19.60;;;;;;;2.51;100.00;101007.59;5226037;28;20033;-72
2022/11/19 07:08:11;;;;;;;22.33;20.55;;;;;;;2.79;100.00;101049.31;5228105;28;20025;-72
2022/11/19 07:10:42;;;;;;;21.42;19.63;;;;;;;2.72;100.00;101033.28;5226671;28;20122;-72
2022/11/19 07:13:12;;;;;;;25.05;22.77;;;;;;;2.69;100.00;101039.84;5225373;28;20028;-73
2022/11/19 07:15:43;;;;;;;25.10;22.77;;;;;;;2.78;100.00;101069.00;5223808;28;20436;-72
2022/11/19 07:18:13;;;;;;;24.35;22.33;;;;;;;2.70;100.00;101054.81;5225738;28;20057;-72
2022/11/19 07:20:45;;;;;;;25.88;23.58;;;;;;;2.81;100.00;101065.94;5226465;28;20032;-73
2022/11/19 07:23:16;;;;;;;23.67;21.63;;;;;;;2.76;100.00;101068.38;5226522;28;20025;-73
2022/11/19 07:25:46;;;;;;;26.65;24.48;;;;;;;2.53;100.00;101016.22;5224269;28;20044;-73
2022/11/19 07:28:17;;;;;;;29.15;26.70;;;;;;;2.76;100.00;101069.19;5225913;28;20428;-72
2022/11/19 07:30:47;;;;;;;28.50;26.23;;;;;;;2.65;100.00;101061.75;5224384;28;20570;-72
2022/11/19 07:33:18;;;;;;;27.60;25.45;;;;;;;2.38;100.00;101024.34;5225693;28;20059;-72
2022/11/19 07:35:48;;;;;;;29.20;26.42;;;;;;;2.67;100.00;101073.88;5226581;28;20017;-71
2022/11/19 07:38:18;;;;;;;29.98;27.33;;;;;;;2.58;100.00;101064.41;5223600;28;20032;-71
2022/11/19 07:40:55;;;;;;;32.85;29.40;;;;;;;2.63;100.00;101077.97;5225919;28;20100;-71
2022/11/19 07:43:26;;;;;;;28.75;25.85;;;;;;;2.61;100.00;101090.66;5227235;28;20025;-71
2022/11/19 07:45:56;;;;;;;33.65;30.35;;;;;;;2.62;100.00;101096.81;5226927;28;20531;-71
2022/11/19 07:48:26;;;;;;;32.05;29.35;;;;;;;2.19;100.00;101024.25;5226004;28;20112;-72
2022/11/19 07:50:57;;;;;;;32.67;29.95;;;;;;;2.58;100.00;101111.59;5225793;28;20426;-71
2022/11/19 07:53:27;;;;;;;33.30;30.48;;;;;;;2.33;100.00;101074.72;5225416;28;20485;-71
2022/11/19 07:56:01;;;;;;;36.03;32.83;;;;;;;2.49;100.00;101108.25;5225631;28;20025;-70
2022/11/19 07:58:32;;;;;;;33.45;30.50;;;;;;;2.47;100.00;101099.63;5225766;28;20031;-70
2022/11/19 08:01:32;;;;;;;34.13;30.77;;;;;;;2.43;100.00;101103.69;5224768;28;20376;-70
2022/11/19 08:04:04;;;;;;;31.63;28.60;;;;;;;2.37;100.00;101107.16;5203846;28;20047;-70
2022/11/19 08:06:34;;;;;;;38.38;29.98;;;;;;;2.33;100.00;101105.88;5225520;28;20048;-70
2022/11/19 08:09:05;;;;;;;38.03;34.67;;;;;;;2.32;100.00;101106.91;5225518;28;20122;-70
2022/11/19 08:14:23;;;;;;;32.53;29.73;;;;;;;2.35;100.00;101114.50;5242852;28;20048;-65
2022/11/19 08:19:42;;;;;;;33.97;30.92;;;;;;;2.28;100.00;101111.00;5245921;28;20064;-66
2022/11/19 08:22:13;;;;;;;34.45;31.27;;;;;;;2.27;100.00;101114.69;5266897;28;20447;-66
2022/11/19 08:24:43;;;;;;;32.70;29.77;;;;;;;2.36;100.00;101118.81;5248301;28;20020;-65
2022/11/19 08:27:14;;;;;;;35.88;32.13;;;;;;;2.41;100.00;101120.91;5248743;28;20115;-66
2022/11/19 08:29:44;;;;;;;35.60;31.77;;;;;;;2.41;100.00;101128.91;5248174;28;20055;-65
2022/11/19 08:32:15;;;;;;;35.33;32.03;;;;;;;2.18;100.00;101111.34;5248586;28;20016;-66
2022/11/19 08:34:45;;;;;;;33.72;30.25;;;;;;;2.33;100.00;101135.19;5248057;28;20440;-65
2022/11/19 08:37:15;;;;;;;38.92;35.13;;;;;;;2.28;100.00;101127.00;5247558;28;20034;-66
2022/11/19 08:39:46;;;;;;;36.38;32.88;;;;;;;2.33;100.00;101141.34;5248558;28;20463;-66
2022/11/19 08:45:06;;;;;;;41.35;37.55;;;;;;;2.29;100.00;101150.78;5266621;28;20038;-66
2022/11/19 08:47:36;;;;;;;37.58;34.25;;;;;;;2.25;100.00;101148.69;5247676;28;20032;-66
2022/11/19 08:50:07;;;;;;;42.35;38.25;;;;;;;2.32;100.00;101142.38;5248461;28;20541;-67
2022/11/19 08:52:38;;;;;;;39.40;35.85;;;;;;;2.34;100.00;101147.50;5266300;28;20375;-67
2022/11/19 08:55:09;;;;;;;38.13;34.42;;;;;;;2.36;100.00;101143.63;5247478;28;20377;-67
2022/11/19 08:57:39;;;;;;;39.38;35.55;;;;;;;2.29;100.00;101150.78;5248034;28;20557;-67
2022/11/19 09:00:11;;;;;;;37.20;33.47;;;;;;;2.36;100.00;101142.81;5248491;28;20032;-67
2022/11/19 09:02:41;;;;;;;40.58;36.58;;;;;;;2.36;100.00;101140.97;5248003;28;20029;-67
2022/11/19 09:05:12;;;;;;;36.38;32.88;;;;;;;2.40;100.00;101149.41;5246827;28;20537;-67
2022/11/19 09:07:42;;;;;;;45.53;40.95;;;;;;;2.44;100.00;101157.81;5247387;28;20073;-67
2022/11/19 09:10:12;;;;;;;38.92;35.47;;;;;;;2.47;100.00;101147.59;5248194;28;20016;-67
2022/11/19 09:12:43;;;;;;;47.40;42.53;;;;;;;2.52;100.00;101163.00;5247888;28;20025;-67
2022/11/19 09:15:14;;;;;;;43.75;39.63;;;;;;;2.41;100.00;101159.03;5251229;22;20032;-67
2022/11/19 09:17:44;;;;;;;49.80;45.22;;;;;;;2.30;100.00;101149.75;5212095;28;20120;-67
2022/11/19 09:20:15;;;;;;;44.45;39.80;;;;;;;2.48;100.00;101170.56;5227296;28;20387;-67
2022/11/19 09:22:46;;;;;;;42.53;38.53;;;;;;;2.47;100.00;101179.59;5227207;28;20147;-67
2022/11/19 09:25:16;;;;;;;43.80;39.72;;;;;;;2.42;100.00;101178.53;5226844;28;20013;-67
2022/11/19 09:27:47;;;;;;;46.55;41.67;;;;;;;2.45;100.00;101178.13;5226902;28;20034;-67
2022/11/19 09:30:17;;;;;;;45.83;41.42;;;;;;;2.36;100.00;101164.94;5227212;28;20051;-67
2022/11/19 09:32:48;;;;;;;43.13;38.90;;;;;;;2.45;100.00;101181.63;5244940;28;20476;-67
2022/11/19 09:35:18;;;;;;;45.28;41.00;;;;;;;2.48;100.00;101183.91;5245130;28;20107;-67
2022/11/19 09:37:48;;;;;;;44.53;40.40;;;;;;;2.56;100.00;101178.44;5227300;28;20444;-67
2022/11/19 09:40:22;;;;;;;48.58;43.80;;;;;;;2.56;100.00;101182.94;5226950;28;20021;-67
2022/11/19 09:43:01;;;;;;;43.60;39.22;;;;;;;2.53;100.00;101186.00;5226910;28;20025;-67
2022/11/19 09:45:34;;;;;;;46.75;42.38;;;;;;;2.45;100.00;101192.28;5226800;28;20031;-67
2022/11/19 09:48:16;;;;;;;44.17;39.90;;;;;;;2.38;100.00;101202.06;5244919;28;20608;-67
2022/11/19 09:50:53;;;;;;;45.65;41.05;;;;;;;2.43;100.00;101204.97;5244556;28;20032;-67
2022/11/19 09:53:24;;;;;;;46.40;41.90;;;;;;;2.42;100.00;101207.84;5226902;28;20277;-67
2022/11/19 09:55:55;;;;;;;46.08;41.03;;;;;;;2.40;100.00;101201.88;5226924;28;20503;-67
2022/11/19 10:01:53;;;;;;;38.60;34.70;;;;;;;2.51;100.00;101209.34;5248579;28;20055;-68
2022/11/19 10:04:29;;;;;;;39.28;34.58;;;;;;;2.46;100.00;101215.25;5230212;28;20495;-67
2022/11/19 10:07:18;;;;;;;40.40;36.33;;;;;;;2.40;100.00;101221.34;5230702;28;20025;-68
2022/11/19 10:10:26;;;;;;;43.67;39.43;;;;;;;2.38;100.00;101223.38;5230651;28;20392;-68
2022/11/19 10:13:10;;;;;;;46.40;41.40;;;;;;;2.43;100.00;101226.31;5230534;28;20277;-68
2022/11/19 10:16:03;;;;;;;44.67;39.85;;;;;;;2.48;100.00;101223.06;5229876;28;20043;-68
2022/11/19 10:18:50;;;;;;;44.58;39.97;;;;;;;2.47;100.00;101227.56;5221762;28;20052;-67
2022/11/19 10:21:27;;;;;;;47.03;41.33;;;;;;;2.43;100.00;101226.31;5209911;28;20489;-67
2022/11/19 10:24:05;;;;;;;50.20;44.60;;;;;;;2.42;100.00;101229.16;5227423;28;20480;-68
2022/11/19 10:26:40;;;;;;;47.88;43.38;;;;;;;2.45;100.00;101220.78;5209801;28;20032;-67
2022/11/19 10:29:18;;;;;;;53.60;45.38;;;;;;;2.44;100.00;101217.28;5209481;28;20478;-68
2022/11/19 10:31:50;;;;;;;59.90;48.10;;;;;;;2.37;100.00;101222.56;5209545;28;20037;-67
2022/11/19 10:34:30;;;;;;;47.17;42.35;;;;;;;2.42;100.00;101229.97;5210250;28;20042;-67
2022/11/19 10:37:20;;;;;;;49.72;44.60;;;;;;;2.48;100.00;101231.06;5210649;28;20116;-68
2022/11/19 10:39:50;;;;;;;;;;;;;;;2.44;100.00;101237.78;5210627;28;20508;-68
2022/11/19 10:42:33;;;;;;;52.92;47.25;;;;;;;2.41;100.00;101235.50;5210469;28;20103;-67
2022/11/19 10:45:14;;;;;;;53.95;48.35;;;;;;;2.43;100.00;101231.63;5210069;28;20485;-67
2022/11/19 10:47:53;;;;;;;55.00;45.97;;;;;;;2.48;100.00;101228.41;5210105;28;20025;-67
2022/11/19 10:51:13;;;;;;;55.03;46.30;;;;;;;2.49;100.00;101230.03;5210387;28;20480;-67
2022/11/19 10:53:45;;;;;;;55.97;50.42;;;;;;;2.45;100.00;101223.44;5210696;28;20033;-67
2022/11/19 10:56:22;;;;;;;55.55;45.85;;;;;;;2.34;100.00;101214.94;5210778;28;20036;-67
2022/11/19 11:02:43;;;;;;;54.42;47.05;;;;;;;2.25;100.00;101212.66;5239010;22;20765;-86
2022/11/19 11:05:16;;;;;;;58.15;49.72;;;;;;;2.00;100.00;101173.09;5209520;28;20089;-87
2022/11/19 11:07:59;;;;;;;58.10;52.00;;;;;;;2.34;100.00;101214.13;5191220;28;20483;-86
2022/11/19 11:10:37;;;;;;;52.58;46.72;;;;;;;2.38;100.00;101226.88;5191185;28;20029;-89
2022/11/19 11:16:45;;;;;;;52.80;47.50;;;;;;;2.30;100.00;101215.56;5205265;22;20414;-67
2022/11/19 11:19:18;;;;;;;53.58;46.33;;;;;;;2.37;100.00;101216.41;5209397;28;20029;-66
2022/11/19 11:21:54;;;;;;;61.92;46.10;;;;;;;2.38;100.00;101218.06;5227058;28;20021;-66
2022/11/19 11:24:37;;;;;;;58.38;46.28;;;;;;;2.24;100.00;101200.34;5208660;28;20056;-69
2022/11/19 11:27:18;;;;;;;52.25;45.22;;;;;;;2.35;100.00;101213.94;5209124;28;20124;-66
2022/11/19 11:30:03;;;;;;;51.80;46.45;;;;;;;2.35;100.00;101224.59;5209105;28;20025;-66
2022/11/19 11:32:33;;;;;;;54.20;48.45;;;;;;;2.17;100.00;101204.78;5209035;28;20032;-66
2022/11/19 11:35:05;;;;;;;53.90;48.40;;;;;;;2.31;100.00;101227.88;5208888;28;20393;-67
2022/11/19 11:37:36;;;;;;;53.08;47.63;;;;;;;2.27;100.00;101231.94;5208136;28;20117;-65
2022/11/19 11:40:18;;;;;;;55.17;49.08;;;;;;;2.10;100.00;101201.22;5209357;28;20025;-65
2022/11/19 11:42:50;;;;;;;52.45;46.97;;;;;;;2.21;100.00;101232.69;5210062;28;20120;-68
2022/11/19 11:45:33;;;;;;;50.10;44.55;;;;;;;2.24;100.00;101232.31;5227504;28;20033;-67
2022/11/19 11:48:07;;;;;;;50.85;45.00;;;;;;;2.17;100.00;101218.94;5209793;28;20025;-69
2022/11/19 11:50:37;;;;;;;52.72;47.13;;;;;;;2.12;100.00;101220.50;5209822;28;20027;-69
2022/11/19 11:53:08;;;;;;;53.10;47.42;;;;;;;2.24;100.00;101226.97;5210039;28;20103;-69
2022/11/19 11:55:39;;;;;;;50.60;45.47;;;;;;;2.33;100.00;101241.78;5209188;28;20029;-69
2022/11/19 11:58:32;;;;;;;61.63;49.58;;;;;;;2.25;100.00;101239.28;5209571;28;20097;-69
2022/11/19 12:01:17;;;;;;;51.25;45.67;;;;;;;2.26;100.00;101232.94;5228340;28;20051;-67
2022/11/19 12:03:56;;;;;;;52.22;46.78;;;;;;;2.23;100.00;101233.31;5209171;28;20051;-68
2022/11/19 12:06:42;;;;;;;52.33;46.35;;;;;;;2.22;100.00;101229.00;5209497;28;20068;-69
2022/11/19 12:09:32;;;;;;;53.88;45.38;;;;;;;2.31;100.00;101238.53;5209465;28;20393;-67
2022/11/19 12:12:11;;;;;;;54.35;48.47;;;;;;;1.83;100.00;101150.41;5209452;28;20108;-70
2022/11/19 12:15:03;;;;;;;57.58;46.38;;;;;;;2.41;100.00;101228.34;5208865;28;20496;-69